עמוד ראשי
METAR-TAF:

METAR-TAF

שדות תעופה :

Bandar Kangan, איראן

קו רוחב: 27-49-14N, קו אורך: 52-21-08E, גובה: 662מטר

תצפית מזג אוויר נוכחית

הדו"ח נערך לפני 6 שעות ו 23דקות, בשעה 15:00 UTC
רוח 8קשר מכיוון מערב/צפון-מערב
טמפרטורת 36 צלסיוס
לחות 15%
לחץ 1004 hPa
ראות 10 קילומטר או יותר
ללא עננים שבסיסם נמוך מ 5000 רגל או קומולונימבוס

METAR: OIBJ 131500Z 29008KT CAVOK 36/05 Q1004 A2966

זמן: 01:53 (21:23 UTC)


TAF: חסר

תצפיות ותחזיות מזג אוויר לגבי יותר מ- 4,000 שדות תעופה ברחבי העולם. דוחות METAR ו- TAF.

התחנות הזמינות מסומנות בנקודות צהובות ואדומות על גבי המפה.

העבר את העכבר לנקודה הצבעונית על מנת לראות את שם התחנה.

לאחר מכן, לחץ כדי לראות את תוכן ואת תחזיות מזג האוויר.

כדי לשנות את המפה: לחץ על הכפתורים הירוקים עם הפלוס השחור כדי להתקרב; על הכפתור הירוק עם המקף כדי להתרחק; או בחיצים הירוקים למפות סמוכות.


METAR-TAF: